KLM1196 ENGM-EHAM
Flight info
| Callsign | KLM1196 |
|---|---|
| Flight time | N/A |
| Altitude | 36000 |
| Route | VIPPA DCT KUGAL DCT EEL DCT BLUFA |
| Aircraft | A21N/M-SDE2E3FGHIRWXY/LB1 |
Departure
| Time | 2026-05-05 07:06 |
|---|---|
| Airport | Oslo-Gardermoen International Airport (ENGM) |
Arrival
| Time | N/A |
|---|---|
| Airport | Amsterdam Airport Schiphol (EHAM) |
| Time | Latitude | Longitude | Altitude | Speed | Heading |
|---|---|---|---|---|---|
| 2026-05-05 06:52 | 60.19443 | 11.10353 | 689 ft | 0 kts | 196° |
| 2026-05-05 06:57 | 60.19458 | 11.10362 | 685 ft | 4 kts | 196° |
| 2026-05-05 06:57 | 60.19483 | 11.10377 | 686 ft | 4 kts | 196° |
| 2026-05-05 06:58 | 60.19507 | 11.10391 | 687 ft | 3 kts | 196° |
| 2026-05-05 06:58 | 60.19530 | 11.10395 | 686 ft | 4 kts | 146° |
| 2026-05-05 06:58 | 60.19544 | 11.10356 | 689 ft | 4 kts | 107° |
| 2026-05-05 06:58 | 60.19547 | 11.10335 | 685 ft | 1 kts | 106° |
| 2026-05-05 07:01 | 60.19546 | 11.10344 | 694 ft | 3 kts | 106° |
| 2026-05-05 07:01 | 60.19534 | 11.10431 | 686 ft | 9 kts | 104° |
| 2026-05-05 07:01 | 60.19511 | 11.10588 | 694 ft | 14 kts | 107° |
| 2026-05-05 07:02 | 60.19479 | 11.10808 | 694 ft | 18 kts | 106° |
| 2026-05-05 07:02 | 60.19439 | 11.11084 | 694 ft | 22 kts | 106° |
| 2026-05-05 07:02 | 60.19343 | 11.11230 | 694 ft | 21 kts | 190° |
| 2026-05-05 07:02 | 60.19190 | 11.11147 | 689 ft | 24 kts | 196° |
| 2026-05-05 07:03 | 60.19016 | 11.11047 | 690 ft | 28 kts | 197° |
| 2026-05-05 07:03 | 60.18815 | 11.10929 | 690 ft | 31 kts | 195° |
| 2026-05-05 07:03 | 60.18597 | 11.10805 | 683 ft | 34 kts | 195° |
| 2026-05-05 07:03 | 60.18366 | 11.10672 | 681 ft | 36 kts | 196° |
| 2026-05-05 07:04 | 60.18129 | 11.10536 | 682 ft | 18 kts | 188° |
| 2026-05-05 07:04 | 60.18054 | 11.10695 | 683 ft | 19 kts | 106° |
| 2026-05-05 07:04 | 60.18044 | 11.10768 | 686 ft | 0 kts | 105° |
| 2026-05-05 07:04 | 60.18043 | 11.10773 | 686 ft | 2 kts | 105° |
| 2026-05-05 07:05 | 60.18039 | 11.10865 | 685 ft | 11 kts | 84° |
| 2026-05-05 07:05 | 60.18046 | 11.10983 | 685 ft | 14 kts | 81° |
| 2026-05-05 07:05 | 60.18080 | 11.11067 | 686 ft | 9 kts | 20° |
| 2026-05-05 07:05 | 60.18353 | 11.11233 | 687 ft | 74 kts | 15° |
| 2026-05-05 07:06 | 60.19080 | 11.11649 | 688 ft | 143 kts | 15° |
| 2026-05-05 07:06 | 60.20202 | 11.12292 | 820 ft | 180 kts | 15° |
| 2026-05-05 07:06 | 60.21369 | 11.13187 | 1583 ft | 179 kts | 23° |
| 2026-05-05 07:06 | 60.22213 | 11.14971 | 2357 ft | 186 kts | 69° |
| 2026-05-05 07:07 | 60.22457 | 11.17698 | 2658 ft | 212 kts | 85° |
| 2026-05-05 07:07 | 60.22500 | 11.20830 | 2922 ft | 234 kts | 88° |
| 2026-05-05 07:07 | 60.22541 | 11.24215 | 3416 ft | 247 kts | 86° |
| 2026-05-05 07:07 | 60.22607 | 11.27678 | 4164 ft | 249 kts | 88° |
| 2026-05-05 07:08 | 60.22268 | 11.31075 | 4906 ft | 253 kts | 120° |
| 2026-05-05 07:08 | 60.21014 | 11.33615 | 5399 ft | 265 kts | 155° |
| 2026-05-05 07:08 | 60.19230 | 11.34607 | 6117 ft | 268 kts | 173° |
| 2026-05-05 07:08 | 60.17384 | 11.35144 | 6953 ft | 269 kts | 177° |
| 2026-05-05 07:09 | 60.15517 | 11.35068 | 7689 ft | 270 kts | 192° |
| 2026-05-05 07:09 | 60.13738 | 11.33885 | 8435 ft | 271 kts | 208° |
| 2026-05-05 07:09 | 60.12077 | 11.32099 | 9224 ft | 273 kts | 212° |
| 2026-05-05 07:09 | 60.10416 | 11.30199 | 10026 ft | 276 kts | 213° |
| 2026-05-05 07:10 | 60.08693 | 11.28243 | 10449 ft | 295 kts | 212° |
| 2026-05-05 07:10 | 60.06836 | 11.26163 | 10755 ft | 316 kts | 212° |
| 2026-05-05 07:10 | 60.04878 | 11.23998 | 11071 ft | 336 kts | 212° |
| 2026-05-05 07:10 | 60.02777 | 11.21696 | 11479 ft | 351 kts | 212° |
| 2026-05-05 07:11 | 60.00605 | 11.19334 | 12209 ft | 356 kts | 212° |
| 2026-05-05 07:11 | 59.98418 | 11.16964 | 12990 ft | 359 kts | 213° |
| 2026-05-05 07:11 | 59.96229 | 11.14602 | 14020 ft | 354 kts | 215° |
| 2026-05-05 07:11 | 59.94067 | 11.12263 | 14880 ft | 352 kts | 216° |
| 2026-05-05 07:12 | 59.91921 | 11.09943 | 15674 ft | 351 kts | 216° |
| 2026-05-05 07:12 | 59.89773 | 11.07627 | 16428 ft | 350 kts | 217° |
| 2026-05-05 07:12 | 59.87655 | 11.05349 | 17119 ft | 350 kts | 217° |
| 2026-05-05 07:12 | 59.85512 | 11.03051 | 17901 ft | 349 kts | 218° |
| 2026-05-05 07:13 | 59.83375 | 11.00757 | 18550 ft | 350 kts | 218° |
| 2026-05-05 07:13 | 59.81221 | 10.98449 | 19056 ft | 353 kts | 218° |
| 2026-05-05 07:13 | 59.79050 | 10.96114 | 19524 ft | 357 kts | 218° |
| 2026-05-05 07:13 | 59.76855 | 10.93763 | 20023 ft | 360 kts | 218° |
| 2026-05-05 07:14 | 59.74644 | 10.91401 | 20538 ft | 362 kts | 218° |
| 2026-05-05 07:14 | 59.72420 | 10.89028 | 21061 ft | 364 kts | 218° |
| 2026-05-05 07:14 | 59.70173 | 10.86628 | 21339 ft | 371 kts | 217° |
| 2026-05-05 07:14 | 59.67884 | 10.84190 | 21736 ft | 376 kts | 217° |
| 2026-05-05 07:15 | 59.65568 | 10.81732 | 22233 ft | 378 kts | 217° |
| 2026-05-05 07:15 | 59.63240 | 10.79268 | 22714 ft | 380 kts | 217° |
| 2026-05-05 07:15 | 59.60895 | 10.76788 | 23165 ft | 383 kts | 217° |
| 2026-05-05 07:15 | 59.58537 | 10.74298 | 23569 ft | 386 kts | 217° |
| 2026-05-05 07:16 | 59.56141 | 10.71816 | 23915 ft | 391 kts | 214° |
| 2026-05-05 07:16 | 59.53590 | 10.69764 | 24246 ft | 403 kts | 207° |
| 2026-05-05 07:16 | 59.50825 | 10.68426 | 24590 ft | 414 kts | 201° |
| 2026-05-05 07:16 | 59.48013 | 10.67395 | 24926 ft | 417 kts | 200° |
| 2026-05-05 07:17 | 59.45105 | 10.66387 | 25210 ft | 420 kts | 200° |
| 2026-05-05 07:17 | 59.42215 | 10.65380 | 25406 ft | 424 kts | 199° |
| 2026-05-05 07:17 | 59.39296 | 10.64355 | 25693 ft | 427 kts | 199° |
| 2026-05-05 07:17 | 59.36403 | 10.63338 | 26024 ft | 429 kts | 199° |
| 2026-05-05 07:18 | 59.33471 | 10.62305 | 26428 ft | 428 kts | 199° |
| 2026-05-05 07:18 | 59.30548 | 10.61276 | 26929 ft | 426 kts | 199° |
| 2026-05-05 07:18 | 59.27636 | 10.60249 | 27340 ft | 425 kts | 199° |
| 2026-05-05 07:18 | 59.24725 | 10.59222 | 27735 ft | 424 kts | 199° |
| 2026-05-05 07:19 | 59.21816 | 10.58196 | 28113 ft | 424 kts | 199° |
| 2026-05-05 07:19 | 59.18919 | 10.57175 | 28482 ft | 423 kts | 199° |
| 2026-05-05 07:19 | 59.16012 | 10.56153 | 28797 ft | 423 kts | 199° |
| 2026-05-05 07:19 | 59.13117 | 10.55134 | 29121 ft | 423 kts | 199° |
| 2026-05-05 07:20 | 59.10269 | 10.53877 | 29472 ft | 416 kts | 205° |
| 2026-05-05 07:20 | 59.07586 | 10.51953 | 29827 ft | 407 kts | 212° |
| 2026-05-05 07:20 | 59.05137 | 10.49322 | 30129 ft | 398 kts | 220° |
| 2026-05-05 07:20 | 59.02960 | 10.46070 | 30391 ft | 392 kts | 228° |
| 2026-05-05 07:21 | 59.01085 | 10.42294 | 30641 ft | 387 kts | 235° |
| 2026-05-05 07:21 | 58.99492 | 10.38114 | 30890 ft | 384 kts | 239° |
| 2026-05-05 07:21 | 58.98006 | 10.33821 | 31131 ft | 384 kts | 240° |
| 2026-05-05 07:21 | 58.96450 | 10.29603 | 31387 ft | 386 kts | 235° |
| 2026-05-05 07:22 | 58.94625 | 10.25767 | 31611 ft | 390 kts | 227° |
| 2026-05-05 07:22 | 58.92489 | 10.22465 | 31837 ft | 396 kts | 219° |
| 2026-05-05 07:22 | 58.90072 | 10.19806 | 31966 ft | 404 kts | 211° |
| 2026-05-05 07:22 | 58.87479 | 10.17634 | 32104 ft | 408 kts | 209° |
| 2026-05-05 07:23 | 58.84831 | 10.15632 | 32336 ft | 410 kts | 208° |
| 2026-05-05 07:23 | 58.82158 | 10.13710 | 32548 ft | 410 kts | 207° |
| 2026-05-05 07:23 | 58.79480 | 10.11817 | 32782 ft | 409 kts | 207° |
| 2026-05-05 07:23 | 58.76844 | 10.09948 | 32998 ft | 409 kts | 208° |
| 2026-05-05 07:24 | 58.74175 | 10.08039 | 33206 ft | 408 kts | 208° |
| 2026-05-05 07:24 | 58.71519 | 10.06121 | 33401 ft | 408 kts | 208° |
| 2026-05-05 07:24 | 58.68868 | 10.04196 | 33592 ft | 407 kts | 208° |
| 2026-05-05 07:24 | 58.66211 | 10.02261 | 33779 ft | 407 kts | 208° |
| 2026-05-05 07:25 | 58.63563 | 10.00331 | 33898 ft | 407 kts | 208° |
| 2026-05-05 07:25 | 58.60917 | 9.98406 | 34088 ft | 406 kts | 208° |
| 2026-05-05 07:25 | 58.58275 | 9.96486 | 34229 ft | 406 kts | 208° |
| 2026-05-05 07:26 | 58.53001 | 9.92663 | 34431 ft | 407 kts | 208° |
| 2026-05-05 07:26 | 58.50354 | 9.90750 | 34533 ft | 408 kts | 207° |
| 2026-05-05 07:26 | 58.47723 | 9.88852 | 34637 ft | 408 kts | 207° |
| 2026-05-05 07:26 | 58.45008 | 9.86898 | 34750 ft | 409 kts | 207° |
| 2026-05-05 07:27 | 58.42348 | 9.84987 | 34856 ft | 409 kts | 207° |
| 2026-05-05 07:27 | 58.39681 | 9.83074 | 34967 ft | 409 kts | 207° |
| 2026-05-05 07:27 | 58.37045 | 9.81187 | 35057 ft | 410 kts | 207° |
| 2026-05-05 07:28 | 58.31696 | 9.77364 | 35223 ft | 411 kts | 207° |
| 2026-05-05 07:28 | 58.26321 | 9.73534 | 35352 ft | 413 kts | 207° |
| 2026-05-05 07:29 | 58.20905 | 9.69687 | 35424 ft | 417 kts | 207° |
| 2026-05-05 07:29 | 58.15444 | 9.65821 | 35494 ft | 421 kts | 207° |
| 2026-05-05 07:30 | 58.09925 | 9.61927 | 35484 ft | 425 kts | 206° |
| 2026-05-05 07:30 | 58.04371 | 9.58027 | 35669 ft | 425 kts | 206° |
| 2026-05-05 07:30 | 58.01594 | 9.56082 | 35768 ft | 426 kts | 206° |
| 2026-05-05 07:31 | 57.96032 | 9.52194 | 35927 ft | 427 kts | 206° |
| 2026-05-05 07:31 | 57.90446 | 9.48299 | 35953 ft | 428 kts | 206° |
| 2026-05-05 07:32 | 57.84862 | 9.44422 | 35918 ft | 427 kts | 206° |
| 2026-05-05 07:32 | 57.79282 | 9.40558 | 35955 ft | 428 kts | 206° |
| 2026-05-05 07:33 | 57.73694 | 9.36701 | 35952 ft | 428 kts | 206° |
| 2026-05-05 07:33 | 57.68110 | 9.32859 | 35957 ft | 428 kts | 206° |
| 2026-05-05 07:34 | 57.62524 | 9.29029 | 35958 ft | 428 kts | 206° |
| 2026-05-05 07:34 | 57.56916 | 9.25194 | 35937 ft | 430 kts | 206° |
| 2026-05-05 07:35 | 57.51263 | 9.21340 | 35959 ft | 435 kts | 206° |
| 2026-05-05 07:35 | 57.45575 | 9.17479 | 35953 ft | 435 kts | 206° |
| 2026-05-05 07:36 | 57.39930 | 9.13664 | 35960 ft | 434 kts | 206° |
| 2026-05-05 07:36 | 57.34250 | 9.09834 | 35955 ft | 434 kts | 206° |
| 2026-05-05 07:37 | 57.28575 | 9.06019 | 35963 ft | 434 kts | 205° |
| 2026-05-05 07:37 | 57.22886 | 9.02206 | 35963 ft | 435 kts | 205° |
| 2026-05-05 07:38 | 57.17203 | 8.98411 | 35966 ft | 435 kts | 205° |
| 2026-05-05 07:38 | 57.11516 | 8.94626 | 35966 ft | 435 kts | 205° |
| 2026-05-05 07:39 | 57.05822 | 8.90848 | 35920 ft | 434 kts | 205° |
| 2026-05-05 07:39 | 57.00119 | 8.87075 | 35966 ft | 436 kts | 205° |
| 2026-05-05 07:40 | 56.94405 | 8.83308 | 35975 ft | 437 kts | 205° |
| 2026-05-05 07:40 | 56.88683 | 8.79550 | 35968 ft | 436 kts | 205° |
| 2026-05-05 07:41 | 56.82955 | 8.75800 | 35969 ft | 436 kts | 205° |
| 2026-05-05 07:41 | 56.77263 | 8.72084 | 35966 ft | 437 kts | 205° |
| 2026-05-05 07:42 | 56.71525 | 8.68350 | 35971 ft | 438 kts | 204° |
| 2026-05-05 07:42 | 56.65778 | 8.64623 | 35971 ft | 438 kts | 204° |
| 2026-05-05 07:43 | 56.60022 | 8.60913 | 35971 ft | 438 kts | 204° |